Britt, Minnesota
Current Conditions -  °F | °C
As of 12:34 PM on Monday 26 Jan 2015 (Local Time) from KCQM Reporting Station
Light Snow Light Snow  
Wind Chill: 28°   Ceiling: 800
Heat Index: 28°   Visibility: 1mi
Dew Point: 27°   Wind: 3mph
Humidity: 93%   Direction: 290°WNW
Pressure: 29.64"   Gusts: NA
Location:  47.64°N, 92.53°W
Report Text: KCQM 261834Z AUTO 29003KT 1SM -SN OVC008 M02/M03 A2964 RMK AO2 P0001
Loading
Personal Weather Stations






























Interactive Weather Map New forecast layout! Learn more

10-Day Weather Forecast

Advertisements
Track Severe Weather on mobile